Etusivu
METAR-TAF:

METAR-TAF

Lentoasemat :

Zagreb, Kroatia

Zagrebin lentoasema

Leveyspiiri: 45-44N, Pituuspiiri: 016-04E, korkeus merenpinnasta: 106 m

Tämänhetkinen sää

Tämä raportti tehtiin 23 minuuttia sitten, kello 10.00 UTC
Tuuli 5 kn koillisesta, vaihdellen pohjoisen/luoteen ja idän/kaakon välillä
Lämpötila 24°C
Kosteus 38%
Ilmanpaine 1023 hPa
Näkyvyys 10 km tai enemmän
ei pilviä alle 1500 m:ssä eikä cumulonimbus-pilviä

METAR: LDZA 281000Z 04005KT 330V110 CAVOK 24/09 Q1023 NOSIG

Aika: 12:23 (10:23 UTC)

Sääennuste

Tämä raportti tehtiin 4 tuntia ja 58 minuuttia sitten, kello 05.25 UTC
Ennuste voimassa 28. päivästä klo 06 UTC - 29. päivään klo 06 UTC
Tuuli 6 kn koillisesta
Näkyvyys 10 km tai enemmän
ei pilviä alle 1500 m:ssä eikä cumulonimbus-pilviä

TAF: LDZA 280525Z 2806/2906 05006KT CAVOK TX27/2813Z TN11/2903Z

Säähavainnot ja -ennusteet yli 4000 lentoasemalta (METAR- ja TAF-raportit).

Käytössä olevat sääasemat on merkitty karttaan keltaisilla ja punaisilla pisteillä.

Aseta hiiri pisteen päälle nähdäksesi sääaseman nimen.

Klikkaa sitten nähdäksesi säähavainnot ja -ennusteet.

Kartan vaihtaminen: klikkaa mustalla rastilla varustettuja vihreitä pisteitä, niin voit zoomata sisään; viivalla varustettua vihreää pistettä, niin voit zoomata ulos tai vihreitä nuolia, niin pääset viereisille kartoille.


METAR-TAF: